Time;durP1;ratioP1;P1;durP2;ratioP2;P2;SDS_P1;SDS_P2;PMS_P1;PMS_P2;Temp;Humidity;BMP_temperature;BMP_pressure;BME280_temperature;BME280_humidity;BME280_pressure;Samples;Min_cycle;Max_cycle;Signal;HPM_P1;HPM_P2
2022/02/17 00:02:05;;;;;;;18.63;3.67;;;12.50;86.90;;;;;;5059161;28;20061;-63
2022/02/17 00:04:31;;;;;;;16.45;3.80;;;12.50;87.00;;;;;;5052888;28;20060;-64
2022/02/17 00:06:57;;;;;;;18.17;4.20;;;12.60;87.40;;;;;;5045136;28;20541;-63
2022/02/17 00:10:20;;;;;;;18.83;3.97;;;12.50;86.80;;;;;;5082815;28;20360;-63
2022/02/17 00:12:46;;;;;;;16.33;3.65;;;12.50;87.20;;;;;;5069644;28;20024;-64
2022/02/17 00:15:12;;;;;;;16.77;3.03;;;12.60;87.30;;;;;;5069689;28;20029;-64
2022/02/17 00:17:38;;;;;;;17.10;3.47;;;12.60;87.40;;;;;;5078942;28;20023;-65
2022/02/17 00:20:05;;;;;;;15.93;3.35;;;12.50;87.30;;;;;;5075407;28;20507;-65
2022/02/17 00:22:30;;;;;;;18.23;4.10;;;12.50;86.80;;;;;;5073287;28;20039;-65
2022/02/17 00:24:56;;;;;;;16.58;3.90;;;12.60;86.80;;;;;;5066907;28;20479;-64
2022/02/17 00:29:21;;;;;;;15.93;3.63;;;12.60;85.80;;;;;;5089617;27;20371;-64
2022/02/17 00:31:47;;;;;;;16.95;3.22;;;12.60;86.30;;;;;;5085377;28;20046;-64
2022/02/17 00:34:13;;;;;;;17.48;3.47;;;12.60;86.10;;;;;;5085135;28;20058;-64
2022/02/17 00:36:39;;;;;;;16.80;3.33;;;12.60;86.10;;;;;;5083124;28;20024;-64
2022/02/17 00:39:05;;;;;;;12.55;3.00;;;12.60;85.70;;;;;;5090773;28;20367;-64
2022/02/17 00:41:32;;;;;;;18.50;3.50;;;12.60;85.40;;;;;;5090855;28;20032;-64
2022/02/17 00:46:48;;;;;;;15.48;3.90;;;12.60;84.00;;;;;;5081861;28;20396;-64
2022/02/17 00:49:14;;;;;;;13.18;3.45;;;12.50;83.80;;;;;;5066622;28;20460;-64
2022/02/17 00:53:36;;;;;;;11.38;2.67;;;12.50;83.40;;;;;;5083936;27;20360;-63
2022/02/17 00:56:47;;;;;;;12.85;2.78;;;12.50;82.90;;;;;;5059322;28;20427;-63
2022/02/17 00:59:12;;;;;;;12.45;3.03;;;12.50;83.10;;;;;;5041083;28;20121;-63
2022/02/17 01:01:38;;;;;;;14.35;3.13;;;12.50;83.40;;;;;;5045055;28;20053;-64
2022/02/17 01:04:04;;;;;;;12.90;3.05;;;12.50;83.50;;;;;;5045519;28;20388;-64
2022/02/17 01:06:30;;;;;;;13.38;2.90;;;12.50;83.60;;;;;;5037214;28;20539;-64
2022/02/17 01:10:44;;;;;;;17.95;3.80;;;12.40;83.40;;;;;;5113839;27;20104;-67
2022/02/17 01:13:10;;;;;;;10.60;1.73;;;12.30;85.30;;;;;;5106714;28;20065;-66
2022/02/17 01:15:36;;;;;;;12.25;2.90;;;12.20;84.90;;;;;;5116371;28;20031;-66
2022/02/17 01:19:04;;;;;;;12.40;2.22;;;11.90;83.70;;;;;;5073471;28;20434;-65
2022/02/17 01:21:29;;;;;;;15.63;2.92;;;11.70;85.40;;;;;;5067769;28;20037;-64
2022/02/17 01:23:55;;;;;;;17.33;3.30;;;11.60;86.30;;;;;;5066725;28;20040;-64
2022/02/17 01:26:21;;;;;;;12.10;3.20;;;11.60;86.60;;;;;;5070586;28;20068;-64
2022/02/17 01:28:47;;;;;;;14.23;3.25;;;11.60;85.80;;;;;;5081135;28;20036;-64
2022/02/17 01:31:13;;;;;;;9.85;2.50;;;11.60;84.10;;;;;;5069118;28;20028;-64
2022/02/17 01:33:38;;;;;;;9.50;2.38;;;11.60;83.90;;;;;;5064009;28;20083;-65
2022/02/17 01:36:06;;;;;;;10.60;2.22;;;11.60;81.70;;;;;;5075922;28;20033;-65
2022/02/17 01:38:37;;;;;;;9.20;2.38;;;11.60;81.70;;;;;;5085936;28;20035;-64
2022/02/17 01:41:07;;;;;;;10.75;2.15;;;11.60;81.90;;;;;;5083079;28;20051;-65
2022/02/17 01:43:34;;;;;;;14.00;2.33;;;11.60;80.70;;;;;;5080373;28;20012;-65
2022/02/17 01:46:01;;;;;;;12.48;2.35;;;11.50;80.20;;;;;;5076365;28;20033;-65
2022/02/17 01:48:27;;;;;;;10.13;2.20;;;11.50;80.20;;;;;;5076835;28;20025;-64
2022/02/17 01:50:53;;;;;;;12.90;2.60;;;11.50;80.20;;;;;;5074632;28;20071;-65
2022/02/17 01:53:18;;;;;;;13.45;3.00;;;11.40;80.70;;;;;;5077759;28;20068;-64
2022/02/17 01:55:49;;;;;;;17.52;2.95;;;11.40;80.60;;;;;;5078947;28;20025;-64
2022/02/17 01:58:16;;;;;;;14.95;2.70;;;11.40;81.00;;;;;;5078798;28;20034;-64
2022/02/17 02:00:42;;;;;;;17.17;3.60;;;11.50;80.40;;;;;;5081816;28;20444;-65
2022/02/17 02:03:09;;;;;;;18.42;3.38;;;11.50;80.30;;;;;;5069581;28;20127;-64
2022/02/17 02:05:36;;;;;;;16.55;3.53;;;11.50;80.40;;;;;;5083878;28;20032;-66
2022/02/17 02:08:03;;;;;;;25.92;3.45;;;11.50;80.80;;;;;;5079431;28;20089;-64
2022/02/17 02:10:29;;;;;;;19.30;3.75;;;11.50;80.30;;;;;;5082965;28;20075;-64
2022/02/17 02:12:55;;;;;;;20.50;3.88;;;11.50;80.70;;;;;;5082627;28;20020;-64
2022/02/17 02:15:21;;;;;;;23.30;4.55;;;11.50;80.20;;;;;;5069057;28;20376;-65
2022/02/17 02:17:46;;;;;;;19.60;3.97;;;11.50;80.20;;;;;;5074503;28;20074;-64
2022/02/17 02:21:02;;;;;;;18.17;3.63;;;11.50;79.90;;;;;;5064895;28;20502;-64
2022/02/17 02:23:27;;;;;;;20.23;3.92;;;11.60;80.60;;;;;;5043343;28;20481;-64
2022/02/17 02:25:53;;;;;;;21.92;4.07;;;11.60;81.10;;;;;;5026654;28;20032;-64
2022/02/17 02:28:23;;;;;;;17.40;3.88;;;11.60;81.50;;;;;;5044014;28;20092;-64
2022/02/17 02:32:28;;;;;;;27.48;4.82;;;11.60;81.40;;;;;;5113849;27;20419;-65
2022/02/17 02:34:54;;;;;;;28.98;5.78;;;11.60;81.90;;;;;;5119605;27;20466;-64
2022/02/17 02:37:19;;;;;;;24.25;5.93;;;11.60;81.90;;;;;;5095312;28;20036;-64
2022/02/17 02:39:45;;;;;;;22.92;4.47;;;11.60;81.70;;;;;;5092392;28;20081;-64
2022/02/17 02:42:11;;;;;;;19.77;4.43;;;11.60;81.20;;;;;;5106177;28;20024;-64
2022/02/17 02:45:05;;;;;;;24.13;4.13;;;11.50;79.60;;;;;;5075729;28;20458;-64
2022/02/17 02:49:43;;;;;;;19.75;3.75;;;11.50;76.80;;;;;;5044663;28;20810;-63
2022/02/17 02:52:09;;;;;;;20.65;4.07;;;11.50;75.80;;;;;;5023793;28;20069;-63
2022/02/17 02:54:35;;;;;;;19.90;4.18;;;11.50;75.70;;;;;;5052217;28;20034;-63
2022/02/17 02:57:00;;;;;;;15.85;3.15;;;11.50;75.50;;;;;;5020702;28;20457;-63
2022/02/17 02:59:26;;;;;;;19.38;3.75;;;10.10;73.00;;;;;;5025904;28;20032;-63
2022/02/17 03:01:52;;;;;;;17.38;3.45;;;11.50;72.60;;;;;;5016208;28;20110;-63
2022/02/17 03:04:17;;;;;;;17.15;3.50;;;11.50;72.60;;;;;;5025688;28;20045;-64
2022/02/17 03:06:43;;;;;;;17.40;3.22;;;11.50;73.20;;;;;;5026084;28;20034;-63
2022/02/17 03:09:09;;;;;;;19.08;3.95;;;11.50;73.00;;;;;;5026182;28;20038;-63
2022/02/17 03:11:34;;;;;;;17.50;3.50;;;11.50;72.70;;;;;;5026387;28;20101;-63
2022/02/17 03:14:03;;;;;;;16.50;2.83;;;11.40;72.50;;;;;;5033459;28;20095;-64
2022/02/17 03:16:28;;;;;;;15.95;2.80;;;11.40;72.10;;;;;;5026479;28;20048;-64
2022/02/17 03:18:55;;;;;;;17.85;3.58;;;11.50;72.70;;;;;;5035560;28;20481;-64
2022/02/17 03:24:22;;;;;;;17.52;4.13;;;11.40;71.20;;;;;;5079449;28;20794;-63
2022/02/17 03:26:48;;;;;;;15.25;3.65;;;11.40;71.60;;;;;;5065353;28;20029;-64
2022/02/17 03:29:13;;;;;;;16.55;4.15;;;11.30;70.40;;;;;;5065038;28;20116;-64
2022/02/17 03:31:39;;;;;;;15.63;3.58;;;11.30;69.70;;;;;;5066308;28;20503;-64
2022/02/17 03:34:05;;;;;;;16.20;3.50;;;11.30;69.30;;;;;;5065973;28;20112;-64
2022/02/17 03:40:34;;;;;;;26.95;3.55;;;11.20;66.60;;;;;;5067940;28;20425;-64
2022/02/17 03:43:00;;;;;;;17.25;3.40;;;11.20;67.00;;;;;;5065249;28;20263;-63
2022/02/17 03:45:26;;;;;;;15.80;3.15;;;11.20;67.80;;;;;;5066242;28;20032;-64
2022/02/17 03:47:51;;;;;;;17.88;3.35;;;11.20;68.00;;;;;;5063342;28;20072;-64
2022/02/17 03:50:49;;;;;;;14.98;2.95;;;11.20;66.30;;;;;;5064889;28;20418;-65
2022/02/17 03:53:33;;;;;;;22.20;3.78;;;11.20;65.10;;;;;;5106044;27;20412;-64
2022/02/17 03:55:58;;;;;;;17.05;3.05;;;11.20;65.20;;;;;;5096942;28;20490;-65
2022/02/17 04:01:09;;;;;;;17.33;3.03;;;11.10;63.90;;;;;;5073033;27;20415;-65
2022/02/17 04:04:03;;;;;;;15.25;2.95;;;11.10;64.70;;;;;;5048725;27;20374;-63
2022/02/17 04:07:15;;;;;;;25.33;3.67;;;11.10;64.60;;;;;;5066976;27;20377;-64
2022/02/17 04:09:41;;;;;;;19.63;3.72;;;11.10;65.00;;;;;;5065517;28;20136;-64
2022/02/17 04:12:07;;;;;;;17.73;3.05;;;11.00;64.80;;;;;;5058777;28;20115;-64
2022/02/17 04:14:33;;;;;;;18.50;3.20;;;11.00;65.20;;;;;;5063437;28;20071;-64
2022/02/17 04:16:59;;;;;;;15.98;3.08;;;11.00;65.10;;;;;;5048186;28;20488;-64
2022/02/17 04:19:26;;;;;;;16.33;3.25;;;11.00;65.50;;;;;;5045535;28;20124;-65
2022/02/17 04:21:53;;;;;;;16.98;3.13;;;11.00;65.70;;;;;;5049597;28;20032;-64
2022/02/17 04:24:18;;;;;;;16.45;3.53;;;11.00;66.00;;;;;;5061211;28;20450;-64
2022/02/17 04:26:44;;;;;;;25.40;3.53;;;11.00;66.40;;;;;;5062333;28;20123;-64
2022/02/17 04:29:10;;;;;;;12.60;2.92;;;10.90;66.20;;;;;;5030936;28;20124;-64
2022/02/17 04:31:36;;;;;;;17.20;3.85;;;10.90;66.80;;;;;;5047245;28;20464;-64
2022/02/17 04:34:02;;;;;;;21.13;3.95;;;10.90;67.10;;;;;;5043785;28;20043;-64
2022/02/17 04:36:27;;;;;;;11.43;3.08;;;10.90;67.10;;;;;;5044671;28;20479;-64
2022/02/17 04:38:54;;;;;;;17.70;3.92;;;10.90;67.40;;;;;;5044035;28;20025;-64
2022/02/17 04:44:38;;;;;;;15.15;3.42;;;10.90;67.50;;;;;;5062943;28;20458;-63
2022/02/17 04:47:42;;;;;;;26.13;4.38;;;10.90;67.40;;;;;;5104899;27;20909;-64
2022/02/17 04:50:08;;;;;;;16.95;3.40;;;10.90;68.50;;;;;;5106841;28;20062;-63
2022/02/17 04:54:11;;;;;;;18.92;4.38;;;10.90;68.00;;;;;;5133304;27;20418;-63
2022/02/17 04:56:36;;;;;;;23.50;4.13;;;11.00;68.50;;;;;;5130924;27;20447;-64
2022/02/17 04:59:02;;;;;;;22.98;3.78;;;11.00;68.50;;;;;;5125667;27;20130;-64
2022/02/17 05:01:28;;;;;;;14.00;3.22;;;10.90;68.70;;;;;;5127830;27;20102;-64
2022/02/17 05:03:53;;;;;;;19.33;4.22;;;10.90;68.60;;;;;;5125360;27;20080;-64
2022/02/17 05:06:19;;;;;;;20.58;4.05;;;10.90;68.10;;;;;;5125290;27;20027;-64
2022/02/17 05:08:45;;;;;;;18.17;3.67;;;10.90;68.10;;;;;;5118860;27;20106;-64
2022/02/17 05:11:11;;;;;;;23.48;4.38;;;10.90;68.30;;;;;;5123562;27;20478;-64
2022/02/17 05:13:36;;;;;;;22.45;4.20;;;10.90;68.20;;;;;;5122754;27;20043;-64
2022/02/17 05:16:02;;;;;;;21.33;3.92;;;10.90;68.30;;;;;;5141300;27;20034;-64
2022/02/17 05:18:28;;;;;;;18.60;3.50;;;10.90;68.10;;;;;;5129961;27;20027;-64
2022/02/17 05:21:33;;;;;;;16.40;3.65;;;10.80;67.40;;;;;;5125823;27;20362;-64
2022/02/17 05:23:58;;;;;;;12.02;2.55;;;10.80;68.50;;;;;;5126381;27;20076;-64
2022/02/17 05:26:24;;;;;;;9.88;3.33;;;10.80;69.70;;;;;;5128754;27;20549;-65
2022/02/17 05:29:04;;;;;;;13.13;2.92;;;10.70;69.40;;;;;;5086473;27;20402;-63
2022/02/17 05:31:30;;;;;;;14.73;3.10;;;10.60;70.80;;;;;;5084014;28;20016;-63
2022/02/17 05:33:56;;;;;;;12.35;2.72;;;10.50;71.60;;;;;;5084363;28;20450;-64
2022/02/17 05:36:21;;;;;;;16.23;3.30;;;10.40;72.40;;;;;;5092903;28;20487;-63
2022/02/17 05:38:47;;;;;;;16.67;3.20;;;10.40;73.20;;;;;;5094243;28;20470;-64
2022/02/17 05:41:13;;;;;;;14.13;2.85;;;10.30;74.50;;;;;;5083414;28;20449;-64
2022/02/17 05:43:38;;;;;;;18.02;3.28;;;10.20;75.60;;;;;;5091012;28;20038;-64
2022/02/17 05:46:04;;;;;;;12.63;2.97;;;10.10;76.60;;;;;;5087761;28;20458;-64
2022/02/17 05:48:30;;;;;;;17.65;3.47;;;10.00;76.70;;;;;;5093297;28;20501;-64
2022/02/17 05:50:55;;;;;;;19.77;3.42;;;10.00;76.80;;;;;;5093838;28;20521;-64
2022/02/17 05:53:21;;;;;;;17.92;3.88;;;9.90;75.40;;;;;;5098439;28;20386;-64
2022/02/17 05:55:47;;;;;;;19.63;3.30;;;9.90;75.60;;;;;;5106442;28;20032;-64
2022/02/17 05:58:12;;;;;;;19.42;3.22;;;9.90;75.50;;;;;;5096313;28;20032;-65
2022/02/17 06:00:38;;;;;;;15.35;3.47;;;9.90;74.90;;;;;;5081725;28;20039;-65
2022/02/17 06:03:04;;;;;;;14.93;2.72;;;9.90;75.40;;;;;;5082465;28;20107;-64
2022/02/17 06:05:29;;;;;;;14.13;3.10;;;9.80;74.60;;;;;;5084687;28;20036;-64
2022/02/17 06:07:55;;;;;;;21.50;4.03;;;9.80;74.70;;;;;;5088348;28;20101;-64
2022/02/17 06:10:21;;;;;;;18.10;3.03;;;9.80;74.40;;;;;;5085722;28;20116;-64
2022/02/17 06:12:47;;;;;;;19.13;3.50;;;9.80;74.30;;;;;;5092522;28;20024;-64
2022/02/17 06:15:14;;;;;;;17.48;2.88;;;9.80;74.20;;;;;;5084980;28;20071;-64
2022/02/17 06:17:40;;;;;;;16.42;2.83;;;9.70;73.70;;;;;;5088409;28;20035;-65
2022/02/17 06:20:07;;;;;;;13.45;2.67;;;9.70;71.70;;;;;;5079737;28;20040;-64
2022/02/17 06:22:33;;;;;;;11.68;2.47;;;9.70;71.40;;;;;;5076917;28;20070;-64
2022/02/17 06:24:59;;;;;;;15.95;3.10;;;9.70;71.60;;;;;;5072614;28;20059;-64
2022/02/17 06:27:24;;;;;;;13.90;2.60;;;9.70;71.70;;;;;;5074976;28;20041;-66
2022/02/17 06:29:50;;;;;;;13.45;2.78;;;9.70;71.60;;;;;;5078793;28;20467;-66
2022/02/17 06:32:16;;;;;;;17.40;3.10;;;9.70;71.60;;;;;;5064855;28;20025;-66
2022/02/17 06:35:23;;;;;;;17.80;2.97;;;9.80;71.10;;;;;;5069770;27;1308413;-65
2022/02/17 06:38:32;;;;;;;20.48;3.28;;;9.80;71.00;;;;;;5063409;27;1327594;-64
2022/02/17 06:40:57;;;;;;;18.98;3.63;;;9.80;71.10;;;;;;5096236;28;20024;-63
2022/02/17 06:43:24;;;;;;;14.70;2.88;;;9.80;71.00;;;;;;5094221;28;20024;-63
2022/02/17 06:45:50;;;;;;;16.85;3.25;;;9.80;70.90;;;;;;5106336;28;20028;-63
2022/02/17 06:48:17;;;;;;;18.20;2.95;;;9.80;70.20;;;;;;5088351;28;20039;-64
2022/02/17 06:50:43;;;;;;;18.65;3.00;;;9.80;69.80;;;;;;5088418;28;20028;-64
2022/02/17 06:53:09;;;;;;;14.82;2.38;;;9.80;68.70;;;;;;5104435;28;20079;-64
2022/02/17 06:55:35;;;;;;;14.75;2.28;;;9.80;67.90;;;;;;5092662;28;20505;-64
2022/02/17 06:58:02;;;;;;;10.68;2.58;;;9.80;66.10;;;;;;5090857;28;20024;-64
2022/02/17 07:00:27;;;;;;;15.90;3.47;;;9.80;66.10;;;;;;5094949;28;20032;-64
2022/02/17 07:02:55;;;;;;;12.27;2.50;;;9.90;66.80;;;;;;5091459;28;20032;-64
2022/02/17 07:05:25;;;;;;;12.32;2.20;;;9.90;67.10;;;;;;5078609;28;20042;-64
2022/02/17 07:07:51;;;;;;;9.10;2.17;;;9.90;67.50;;;;;;5093583;28;20089;-64
2022/02/17 07:11:04;;;;;;;14.40;2.80;;;9.90;67.10;;;;;;5093304;28;20032;-64
2022/02/17 07:13:05;;;;;;;11.25;2.30;;;9.90;66.20;;;;;;5079030;28;20044;-65
2022/02/17 07:15:34;;;;;;;11.35;2.17;;;9.90;65.80;;;;;;5102523;28;20540;-65
2022/02/17 07:18:01;;;;;;;13.18;2.15;;;9.90;66.20;;;;;;5093806;28;20040;-64
2022/02/17 07:20:27;;;;;;;8.50;1.52;;;9.80;64.70;;;;;;5097078;28;20040;-64
2022/02/17 07:22:52;;;;;;;6.03;1.45;;;9.80;63.10;;;;;;5086698;28;20111;-65
2022/02/17 07:25:18;;;;;;;9.88;1.83;;;9.80;62.50;;;;;;5099514;28;20032;-64
2022/02/17 07:27:44;;;;;;;9.20;1.50;;;9.80;62.20;;;;;;5098265;28;20024;-64
2022/02/17 07:31:34;;;;;;;8.45;1.25;;;9.80;60.70;;;;;;5112455;27;20391;-64
2022/02/17 07:33:59;;;;;;;10.95;2.03;;;9.80;61.20;;;;;;5085229;28;20024;-64
2022/02/17 07:36:25;;;;;;;5.07;1.60;;;9.80;60.50;;;;;;5067355;28;20047;-65
2022/02/17 07:41:06;;;;;;;8.05;1.75;;;9.80;59.80;;;;;;5048651;28;20392;-64
2022/02/17 07:43:32;;;;;;;8.07;1.55;;;9.70;60.10;;;;;;5045051;28;20025;-64
2022/02/17 07:46:00;;;;;;;8.38;1.77;;;9.70;60.00;;;;;;5042867;28;20028;-64
2022/02/17 07:48:26;;;;;;;5.80;1.42;;;9.70;60.10;;;;;;5044993;28;20431;-64
2022/02/17 07:50:53;;;;;;;11.30;1.92;;;9.70;60.80;;;;;;5047451;28;20026;-65
2022/02/17 07:53:19;;;;;;;8.45;1.60;;;9.70;61.20;;;;;;5047936;28;20022;-65
2022/02/17 07:55:44;;;;;;;8.25;1.58;;;9.70;61.50;;;;;;5055093;28;20075;-64
2022/02/17 07:58:15;;;;;;;10.32;2.10;;;9.80;62.30;;;;;;5047026;28;20064;-65
2022/02/17 08:00:40;;;;;;;10.75;2.30;;;9.80;63.30;;;;;;5058500;28;20060;-65
2022/02/17 08:03:07;;;;;;;10.88;2.50;;;9.80;64.70;;;;;;5046270;28;20432;-65
2022/02/17 08:05:34;;;;;;;9.00;2.15;;;9.80;65.70;;;;;;5048832;28;20040;-65
2022/02/17 08:07:59;;;;;;;15.68;2.80;;;9.80;66.40;;;;;;5060551;28;20030;-65
2022/02/17 08:10:25;;;;;;;9.95;2.03;;;9.90;66.50;;;;;;5040146;28;20033;-65
2022/02/17 08:12:51;;;;;;;10.77;3.03;;;9.80;66.70;;;;;;5037732;28;20625;-64
2022/02/17 08:15:16;;;;;;;9.95;2.00;;;9.90;66.80;;;;;;5037773;28;20504;-65
2022/02/17 08:17:42;;;;;;;10.50;2.97;;;9.90;66.40;;;;;;5032664;28;20033;-65
2022/02/17 08:20:11;;;;;;;9.20;2.85;;;10.00;66.50;;;;;;5025738;28;20037;-65
2022/02/17 08:23:33;;;;;;;11.45;2.10;;;10.00;64.00;;;;;;5067242;28;20365;-65
2022/02/17 08:26:00;;;;;;;14.75;2.22;;;9.90;65.00;;;;;;5062615;28;20039;-64
2022/02/17 08:28:26;;;;;;;12.45;2.28;;;9.90;65.40;;;;;;5061009;28;20357;-65
2022/02/17 08:30:52;;;;;;;9.57;2.30;;;9.90;65.90;;;;;;5062444;28;20025;-65
2022/02/17 08:33:18;;;;;;;11.63;2.22;;;9.90;66.20;;;;;;5062337;28;20063;-64
2022/02/17 08:35:44;;;;;;;12.20;2.67;;;10.00;65.70;;;;;;5062418;28;20024;-65
2022/02/17 08:38:10;;;;;;;8.95;1.65;;;9.90;65.00;;;;;;5052992;28;20106;-65
2022/02/17 08:40:35;;;;;;;10.18;2.00;;;9.90;64.60;;;;;;5050137;28;20025;-66
2022/02/17 08:43:10;;;;;;;7.65;1.45;;;9.90;63.90;;;;;;5066807;28;20017;-66
2022/02/17 08:45:41;;;;;;;8.48;1.73;;;10.00;63.20;;;;;;5071949;28;20035;-66
2022/02/17 08:48:08;;;;;;;5.80;1.67;;;10.00;62.10;;;;;;5076788;28;20135;-66
2022/02/17 08:50:34;;;;;;;13.07;2.55;;;10.10;62.20;;;;;;5078158;28;20531;-66
2022/02/17 08:53:00;;;;;;;13.60;2.38;;;10.10;61.10;;;;;;5073379;28;20630;-66
2022/02/17 08:55:26;;;;;;;14.48;2.13;;;10.10;61.50;;;;;;5068114;28;20115;-66
2022/02/17 08:57:53;;;;;;;13.27;2.00;;;10.10;62.00;;;;;;5056693;28;20086;-66
2022/02/17 09:02:31;;;;;;;10.57;1.80;;;10.00;61.60;;;;;;5070867;27;1287165;-64
2022/02/17 09:05:21;;;;;;;9.43;2.33;;;10.00;61.50;;;;;;5048070;28;20382;-64
2022/02/17 09:07:47;;;;;;;13.32;3.17;;;10.10;61.80;;;;;;5034389;28;20037;-64
2022/02/17 09:10:12;;;;;;;10.52;2.55;;;10.10;61.80;;;;;;5024571;28;20041;-64
2022/02/17 09:12:38;;;;;;;13.88;2.45;;;10.10;62.00;;;;;;5047835;28;20029;-64
2022/02/17 09:15:05;;;;;;;8.95;1.92;;;10.10;61.60;;;;;;5043892;28;20018;-64
2022/02/17 09:17:31;;;;;;;7.65;1.83;;;10.10;61.10;;;;;;5037623;28;20025;-64
2022/02/17 09:19:57;;;;;;;8.07;1.60;;;10.10;61.50;;;;;;5039663;28;20534;-64
2022/02/17 09:22:23;;;;;;;8.75;1.77;;;10.10;61.30;;;;;;5036448;28;20029;-64
2022/02/17 09:24:49;;;;;;;8.88;1.75;;;10.20;60.40;;;;;;5050373;28;20555;-64
2022/02/17 09:27:15;;;;;;;8.77;1.75;;;10.10;60.30;;;;;;5036228;28;20022;-64
2022/02/17 09:29:42;;;;;;;7.95;1.98;;;10.20;60.30;;;;;;5037088;28;20108;-64
2022/02/17 09:32:09;;;;;;;9.88;1.77;;;10.20;59.90;;;;;;5027760;28;20035;-64
2022/02/17 09:34:34;;;;;;;7.63;1.88;;;10.20;60.50;;;;;;5036393;28;20060;-64
2022/02/17 09:37:00;;;;;;;5.75;1.50;;;10.30;60.90;;;;;;5040518;28;20030;-65
2022/02/17 09:39:28;;;;;;;9.07;2.10;;;10.40;60.50;;;;;;5037844;28;20043;-65
2022/02/17 09:43:44;;;;;;;10.10;3.08;;;10.50;58.30;;;;;;5086456;28;20647;-65
2022/02/17 09:46:12;;;;;;;9.98;2.15;;;10.40;57.60;;;;;;5086967;28;20399;-65
2022/02/17 09:48:40;;;;;;;5.95;1.40;;;10.40;58.40;;;;;;5085058;28;20775;-65
2022/02/17 09:51:05;;;;;;;13.75;2.10;;;10.30;58.30;;;;;;5085102;28;20028;-65
2022/02/17 09:53:31;;;;;;;8.93;2.13;;;10.40;57.70;;;;;;5085710;28;20540;-65
2022/02/17 09:55:57;;;;;;;8.02;1.80;;;10.40;57.10;;;;;;5086896;28;20028;-65
2022/02/17 09:58:23;;;;;;;9.68;1.90;;;10.40;57.50;;;;;;5070249;28;20036;-65
2022/02/17 10:00:48;;;;;;;11.32;1.70;;;10.40;57.30;;;;;;5060077;28;20480;-65
2022/02/17 10:03:29;;;;;;;8.60;1.70;;;10.50;57.40;;;;;;5045979;28;20037;-65
2022/02/17 10:06:06;;;;;;;9.35;1.48;;;10.50;56.70;;;;;;5061918;28;20029;-65
2022/02/17 10:08:31;;;;;;;9.07;1.58;;;10.60;57.00;;;;;;5058822;28;20020;-65
2022/02/17 10:12:59;;;;;;;7.43;1.70;;;10.70;55.60;;;;;;5082249;28;20364;-64
2022/02/17 10:15:35;;;;;;;13.80;1.63;;;10.80;56.00;;;;;;5077646;28;20034;-64
2022/02/17 10:18:04;;;;;;;8.35;1.20;;;10.90;55.70;;;;;;5076126;28;20043;-65
2022/02/17 10:21:09;;;;;;;9.82;2.10;;;10.90;56.00;;;;;;5070340;28;20469;-65
2022/02/17 10:23:53;;;;;;;9.90;2.00;;;11.00;56.30;;;;;;5068831;28;20360;-64
2022/02/17 10:27:02;;;;;;;7.45;1.65;;;11.00;54.70;;;;;;5071936;27;1323406;-64
2022/02/17 10:29:27;;;;;;;7.60;1.50;;;11.00;55.50;;;;;;5098191;28;20040;-64
2022/02/17 10:32:06;;;;;;;8.52;1.90;;;11.00;56.00;;;;;;5091695;28;20086;-65
2022/02/17 10:34:33;;;;;;;7.18;1.85;;;11.10;56.20;;;;;;5090815;28;20461;-65
2022/02/17 10:36:58;;;;;;;10.23;1.88;;;11.10;55.60;;;;;;5105958;28;20064;-64
2022/02/17 10:39:26;;;;;;;9.80;1.92;;;11.00;55.10;;;;;;5091731;28;20107;-64
2022/02/17 10:42:39;;;;;;;10.45;2.10;;;11.00;55.30;;;;;;5053355;28;20383;-64
2022/02/17 10:45:20;;;;;;;9.38;2.38;;;11.00;56.40;;;;;;5065669;28;20031;-64
2022/02/17 10:47:46;;;;;;;7.20;1.50;;;11.00;55.50;;;;;;5065347;28;20043;-64
2022/02/17 10:50:19;;;;;;;10.80;1.75;;;11.00;55.70;;;;;;5066277;28;20024;-64
2022/02/17 10:52:46;;;;;;;9.90;1.70;;;11.30;60.50;;;;;;5066551;28;20044;-64
2022/02/17 10:55:55;;;;;;;9.20;1.55;;;11.20;55.10;;;;;;5087087;27;20364;-64
2022/02/17 10:58:27;;;;;;;6.57;1.65;;;11.20;54.50;;;;;;5087019;28;20035;-64
2022/02/17 11:03:32;;;;;;;5.25;1.40;;;11.20;53.20;;;;;;5106598;27;20355;-65
2022/02/17 11:05:59;;;;;;;10.38;1.80;;;11.30;54.20;;;;;;5097375;28;20435;-65
2022/02/17 11:08:25;;;;;;;8.20;1.77;;;11.40;54.50;;;;;;5085915;28;20021;-65
2022/02/17 11:10:51;;;;;;;7.78;1.70;;;11.40;53.90;;;;;;5094368;28;20448;-65
2022/02/17 11:15:39;;;;;;;6.95;1.67;;;11.60;52.50;;;;;;5058489;28;20384;-67
2022/02/17 11:20:51;;;;;;;6.20;1.42;;;11.80;52.10;;;;;;5065503;28;20387;-67
2022/02/17 11:23:34;;;;;;;8.73;1.67;;;12.00;54.40;;;;;;5063305;28;20056;-67
2022/02/17 11:26:26;;;;;;;9.07;1.73;;;12.00;52.10;;;;;;5116372;27;20384;-67
2022/02/17 11:42:42;;;;;;;6.80;1.83;;;12.30;50.60;;;;;;5127384;27;20126;-67
2022/02/17 12:09:08;;;;;;;8.27;1.73;;;12.10;50.90;;;;;;5066315;28;20357;-64
2022/02/17 12:11:37;;;;;;;8.25;1.52;;;12.10;52.10;;;;;;5066968;28;20043;-64
2022/02/17 12:16:51;;;;;;;7.93;1.90;;;12.60;51.50;;;;;;5026774;27;1981220;-64
2022/02/17 12:19:18;;;;;;;20.88;3.85;;;12.50;52.00;;;;;;5050265;28;20151;-65
2022/02/17 12:21:46;;;;;;;7.00;1.60;;;12.40;51.90;;;;;;5067047;28;20032;-64
2022/02/17 12:24:15;;;;;;;7.95;1.75;;;12.30;52.30;;;;;;5048571;28;20485;-64
2022/02/17 12:26:51;;;;;;;8.35;1.85;;;12.30;52.20;;;;;;5048679;28;20024;-64
2022/02/17 12:29:33;;;;;;;4.15;1.23;;;12.20;51.90;;;;;;5066112;28;20568;-65
2022/02/17 12:32:15;;;;;;;8.98;1.75;;;12.10;51.80;;;;;;5066520;28;20272;-64
2022/02/17 12:34:42;;;;;;;12.55;2.03;;;11.90;51.30;;;;;;5032282;28;20055;-64
2022/02/17 12:37:16;;;;;;;6.45;1.65;;;11.90;52.50;;;;;;5069358;28;20502;-64
2022/02/17 12:39:46;;;;;;;5.20;1.45;;;12.00;53.20;;;;;;5067882;28;20368;-65
2022/02/17 12:47:35;;;;;;;7.20;1.98;;;13.80;48.00;;;;;;5066475;28;20396;-67
2022/02/17 12:50:05;;;;;;;7.53;1.40;;;14.00;48.60;;;;;;5066211;28;20101;-67
2022/02/17 12:55:45;;;;;;;5.63;1.80;;;15.20;44.80;;;;;;5107280;27;20112;-68
2022/02/17 12:58:32;;;;;;;6.30;1.60;;;15.70;43.00;;;;;;5106891;28;20026;-68
2022/02/17 13:00:59;;;;;;;7.88;1.90;;;15.00;43.90;;;;;;5106496;28;20528;-68
2022/02/17 13:17:36;;;;;;;6.85;1.98;;;17.60;39.50;;;;;;5054186;28;20788;-64
2022/02/17 13:20:25;;;;;;;5.03;1.73;;;17.30;40.50;;;;;;5057807;28;20083;-65
2022/02/17 13:22:50;;;;;;;5.57;1.50;;;16.40;41.50;;;;;;5057985;28;20021;-65
2022/02/17 13:25:16;;;;;;;8.65;1.80;;;15.80;42.80;;;;;;5053301;28;20369;-64
2022/02/17 13:27:44;;;;;;;8.88;1.88;;;15.20;42.80;;;;;;5055332;28;20037;-65
2022/02/17 13:30:13;;;;;;;8.02;2.05;;;14.70;44.00;;;;;;5049501;28;20033;-65
2022/02/17 13:32:41;;;;;;;8.90;1.70;;;14.20;45.70;;;;;;5057580;28;20029;-65
2022/02/17 13:35:11;;;;;;;5.70;1.55;;;14.00;46.50;;;;;;5050010;28;20431;-65
2022/02/17 13:37:44;;;;;;;6.07;1.63;;;13.60;47.50;;;;;;5045383;28;20105;-65
2022/02/17 13:40:11;;;;;;;6.30;2.22;;;13.40;48.50;;;;;;5046353;28;20029;-65
2022/02/17 13:42:37;;;;;;;9.00;1.45;;;13.20;48.80;;;;;;5044866;28;20029;-66
2022/02/17 13:45:20;;;;;;;9.82;2.40;;;13.10;49.30;;;;;;5046414;28;20033;-65
2022/02/17 13:47:49;;;;;;;9.38;2.10;;;13.10;49.90;;;;;;5064010;28;20495;-65
2022/02/17 13:50:18;;;;;;;10.10;2.20;;;13.20;49.90;;;;;;5065475;28;20032;-65
2022/02/17 13:53:02;;;;;;;12.55;2.08;;;13.30;50.70;;;;;;5063437;28;20032;-65
2022/02/17 13:55:30;;;;;;;8.90;2.00;;;13.30;50.60;;;;;;5078991;28;20032;-65
2022/02/17 13:57:58;;;;;;;10.48;2.38;;;13.20;51.10;;;;;;5085718;28;20056;-64
2022/02/17 14:00:28;;;;;;;10.98;2.38;;;13.10;51.10;;;;;;5065058;28;20099;-65
2022/02/17 14:02:54;;;;;;;8.70;2.00;;;13.00;51.30;;;;;;5062171;28;20024;-65
2022/02/17 14:05:31;;;;;;;7.00;1.90;;;13.00;51.80;;;;;;5062964;28;20369;-64
2022/02/17 14:07:57;;;;;;;9.48;1.90;;;13.00;51.10;;;;;;5069170;28;20040;-64
2022/02/17 14:10:23;;;;;;;9.30;1.80;;;12.90;51.20;;;;;;5064829;28;20058;-64
2022/02/17 14:12:49;;;;;;;10.52;2.15;;;12.80;51.50;;;;;;5064672;28;20029;-65
2022/02/17 14:15:14;;;;;;;10.55;1.85;;;13.00;52.10;;;;;;5064465;28;20017;-64
2022/02/17 14:17:40;;;;;;;6.35;1.52;;;13.60;50.40;;;;;;5064105;28;20028;-65
2022/02/17 14:20:07;;;;;;;7.80;2.20;;;13.80;50.30;;;;;;5063198;28;20029;-67
2022/02/17 14:22:32;;;;;;;12.10;2.38;;;13.80;49.40;;;;;;5067367;28;20035;-67
2022/02/17 14:26:01;;;;;;;7.38;1.60;;;13.80;49.50;;;;;;5081509;27;1322475;-68
2022/02/17 14:28:26;;;;;;;5.00;1.80;;;14.50;48.70;;;;;;5074541;28;20086;-68
2022/02/17 14:30:52;;;;;;;7.30;1.70;;;15.30;47.10;;;;;;5085990;28;20036;-68
2022/02/17 14:33:27;;;;;;;7.43;1.77;;;16.10;45.00;;;;;;5065585;28;20369;-66
2022/02/17 14:35:52;;;;;;;8.88;2.33;;;16.70;43.10;;;;;;5065799;28;20036;-67
2022/02/17 14:38:19;;;;;;;9.02;1.88;;;16.60;43.00;;;;;;5083182;28;20048;-67
2022/02/17 14:40:46;;;;;;;4.88;1.38;;;16.20;43.60;;;;;;5085954;28;20043;-67
2022/02/17 14:45:32;;;;;;;6.53;1.50;;;15.10;45.00;;;;;;5127093;27;20410;-67
2022/02/17 14:47:57;;;;;;;7.78;1.60;;;14.60;46.50;;;;;;5126557;27;20562;-67